sensor_id;sensor_type;location;lat;lon;timestamp;P1;durP1;ratioP1;P2;durP2;ratioP2
74108;SDS011;62466;47.566;7.786;2023-03-01T00:01:21;23.17;;;13.82;;
74108;SDS011;62466;47.566;7.786;2023-03-01T00:03:51;21.48;;;14.30;;
74108;SDS011;62466;47.566;7.786;2023-03-01T00:06:17;24.17;;;13.70;;
74108;SDS011;62466;47.566;7.786;2023-03-01T00:08:43;26.38;;;14.70;;
74108;SDS011;62466;47.566;7.786;2023-03-01T00:11:13;23.38;;;14.57;;
74108;SDS011;62466;47.566;7.786;2023-03-01T00:13:46;25.00;;;13.98;;
74108;SDS011;62466;47.566;7.786;2023-03-01T00:16:13;22.92;;;13.65;;
74108;SDS011;62466;47.566;7.786;2023-03-01T00:18:41;22.02;;;14.57;;
74108;SDS011;62466;47.566;7.786;2023-03-01T00:21:06;23.38;;;14.70;;
74108;SDS011;62466;47.566;7.786;2023-03-01T00:23:33;18.98;;;12.48;;
74108;SDS011;62466;47.566;7.786;2023-03-01T00:25:59;24.83;;;13.55;;
74108;SDS011;62466;47.566;7.786;2023-03-01T00:28:25;27.95;;;14.80;;
74108;SDS011;62466;47.566;7.786;2023-03-01T00:30:50;21.92;;;13.80;;
74108;SDS011;62466;47.566;7.786;2023-03-01T00:33:16;21.55;;;12.93;;
74108;SDS011;62466;47.566;7.786;2023-03-01T00:35:42;23.85;;;14.75;;
74108;SDS011;62466;47.566;7.786;2023-03-01T00:38:08;22.77;;;14.57;;
74108;SDS011;62466;47.566;7.786;2023-03-01T00:40:34;20.38;;;13.13;;
74108;SDS011;62466;47.566;7.786;2023-03-01T00:43:00;20.52;;;13.27;;
74108;SDS011;62466;47.566;7.786;2023-03-01T00:45:26;21.60;;;13.68;;
74108;SDS011;62466;47.566;7.786;2023-03-01T00:47:52;22.88;;;13.55;;
74108;SDS011;62466;47.566;7.786;2023-03-01T00:50:18;24.70;;;14.38;;
74108;SDS011;62466;47.566;7.786;2023-03-01T00:52:44;22.15;;;14.15;;
74108;SDS011;62466;47.566;7.786;2023-03-01T00:55:10;22.45;;;13.80;;
74108;SDS011;62466;47.566;7.786;2023-03-01T00:57:36;22.73;;;14.48;;
74108;SDS011;62466;47.566;7.786;2023-03-01T01:00:02;22.65;;;13.90;;
74108;SDS011;62466;47.566;7.786;2023-03-01T01:02:29;22.15;;;13.88;;
74108;SDS011;62466;47.566;7.786;2023-03-01T01:04:55;20.73;;;13.82;;
74108;SDS011;62466;47.566;7.786;2023-03-01T01:07:20;21.23;;;13.45;;
74108;SDS011;62466;47.566;7.786;2023-03-01T01:09:46;22.73;;;14.10;;
74108;SDS011;62466;47.566;7.786;2023-03-01T01:12:11;22.85;;;14.32;;
74108;SDS011;62466;47.566;7.786;2023-03-01T01:14:37;19.23;;;13.00;;
74108;SDS011;62466;47.566;7.786;2023-03-01T01:17:02;23.88;;;13.65;;
74108;SDS011;62466;47.566;7.786;2023-03-01T01:19:28;23.33;;;14.30;;
74108;SDS011;62466;47.566;7.786;2023-03-01T01:21:54;21.33;;;13.90;;
74108;SDS011;62466;47.566;7.786;2023-03-01T01:24:19;22.33;;;13.43;;
74108;SDS011;62466;47.566;7.786;2023-03-01T01:26:45;22.50;;;13.38;;
74108;SDS011;62466;47.566;7.786;2023-03-01T01:29:11;19.17;;;12.75;;
74108;SDS011;62466;47.566;7.786;2023-03-01T01:31:37;23.70;;;13.38;;
74108;SDS011;62466;47.566;7.786;2023-03-01T01:34:05;20.35;;;12.38;;
74108;SDS011;62466;47.566;7.786;2023-03-01T01:36:31;20.30;;;13.32;;
74108;SDS011;62466;47.566;7.786;2023-03-01T01:38:57;21.27;;;14.10;;
74108;SDS011;62466;47.566;7.786;2023-03-01T01:41:23;22.02;;;13.82;;
74108;SDS011;62466;47.566;7.786;2023-03-01T01:44:08;22.45;;;15.07;;
74108;SDS011;62466;47.566;7.786;2023-03-01T01:46:39;22.95;;;13.15;;
74108;SDS011;62466;47.566;7.786;2023-03-01T01:51:49;21.35;;;14.63;;
74108;SDS011;62466;47.566;7.786;2023-03-01T01:54:23;20.90;;;13.52;;
74108;SDS011;62466;47.566;7.786;2023-03-01T01:56:52;23.00;;;14.68;;
74108;SDS011;62466;47.566;7.786;2023-03-01T01:59:23;24.52;;;14.18;;
74108;SDS011;62466;47.566;7.786;2023-03-01T02:01:54;22.58;;;14.75;;
74108;SDS011;62466;47.566;7.786;2023-03-01T02:04:20;23.17;;;13.00;;
74108;SDS011;62466;47.566;7.786;2023-03-01T02:06:48;22.20;;;14.13;;
74108;SDS011;62466;47.566;7.786;2023-03-01T02:09:21;21.33;;;14.07;;
74108;SDS011;62466;47.566;7.786;2023-03-01T02:11:48;26.38;;;14.80;;
74108;SDS011;62466;47.566;7.786;2023-03-01T02:14:14;23.60;;;14.55;;
74108;SDS011;62466;47.566;7.786;2023-03-01T02:16:41;23.67;;;14.57;;
74108;SDS011;62466;47.566;7.786;2023-03-01T02:19:08;22.25;;;15.30;;
74108;SDS011;62466;47.566;7.786;2023-03-01T02:21:39;19.95;;;12.98;;
74108;SDS011;62466;47.566;7.786;2023-03-01T02:24:10;23.15;;;14.98;;
74108;SDS011;62466;47.566;7.786;2023-03-01T02:26:42;27.25;;;15.15;;
74108;SDS011;62466;47.566;7.786;2023-03-01T02:29:11;24.42;;;14.32;;
74108;SDS011;62466;47.566;7.786;2023-03-01T02:31:36;24.08;;;14.85;;
74108;SDS011;62466;47.566;7.786;2023-03-01T02:34:12;25.83;;;15.13;;
74108;SDS011;62466;47.566;7.786;2023-03-01T02:36:40;19.20;;;12.50;;
74108;SDS011;62466;47.566;7.786;2023-03-01T02:39:08;21.67;;;14.18;;
74108;SDS011;62466;47.566;7.786;2023-03-01T02:41:40;24.70;;;15.45;;
74108;SDS011;62466;47.566;7.786;2023-03-01T02:44:08;23.33;;;15.07;;
74108;SDS011;62466;47.566;7.786;2023-03-01T02:46:41;23.45;;;15.07;;
74108;SDS011;62466;47.566;7.786;2023-03-01T02:49:18;28.48;;;15.50;;
74108;SDS011;62466;47.566;7.786;2023-03-01T02:57:15;23.60;;;14.40;;
74108;SDS011;62466;47.566;7.786;2023-03-01T02:59:42;23.65;;;14.80;;
74108;SDS011;62466;47.566;7.786;2023-03-01T03:02:17;26.95;;;16.35;;
74108;SDS011;62466;47.566;7.786;2023-03-01T03:05:14;25.40;;;15.00;;
74108;SDS011;62466;47.566;7.786;2023-03-01T03:07:42;24.88;;;15.38;;
74108;SDS011;62466;47.566;7.786;2023-03-01T03:10:11;25.23;;;15.05;;
74108;SDS011;62466;47.566;7.786;2023-03-01T03:12:38;26.77;;;16.00;;
74108;SDS011;62466;47.566;7.786;2023-03-01T03:15:05;27.38;;;15.98;;
74108;SDS011;62466;47.566;7.786;2023-03-01T03:17:37;24.98;;;15.90;;
74108;SDS011;62466;47.566;7.786;2023-03-01T03:20:05;28.60;;;16.70;;
74108;SDS011;62466;47.566;7.786;2023-03-01T03:22:36;30.02;;;15.55;;
74108;SDS011;62466;47.566;7.786;2023-03-01T03:25:05;25.80;;;15.45;;
74108;SDS011;62466;47.566;7.786;2023-03-01T03:27:36;25.88;;;17.40;;
74108;SDS011;62466;47.566;7.786;2023-03-01T03:30:03;25.10;;;15.32;;
74108;SDS011;62466;47.566;7.786;2023-03-01T03:32:34;25.45;;;16.10;;
74108;SDS011;62466;47.566;7.786;2023-03-01T03:35:04;23.73;;;15.65;;
74108;SDS011;62466;47.566;7.786;2023-03-01T03:37:40;24.00;;;15.20;;
74108;SDS011;62466;47.566;7.786;2023-03-01T03:40:25;24.60;;;15.70;;
74108;SDS011;62466;47.566;7.786;2023-03-01T03:42:51;27.40;;;16.65;;
74108;SDS011;62466;47.566;7.786;2023-03-01T03:45:17;24.20;;;16.35;;
74108;SDS011;62466;47.566;7.786;2023-03-01T03:47:43;28.70;;;16.05;;
74108;SDS011;62466;47.566;7.786;2023-03-01T03:50:09;21.88;;;14.85;;
74108;SDS011;62466;47.566;7.786;2023-03-01T03:52:39;30.00;;;15.82;;
74108;SDS011;62466;47.566;7.786;2023-03-01T03:55:05;25.25;;;15.70;;
74108;SDS011;62466;47.566;7.786;2023-03-01T03:57:36;26.45;;;15.45;;
74108;SDS011;62466;47.566;7.786;2023-03-01T04:00:05;23.08;;;14.55;;
74108;SDS011;62466;47.566;7.786;2023-03-01T04:02:38;22.55;;;14.55;;
74108;SDS011;62466;47.566;7.786;2023-03-01T04:05:04;27.17;;;15.45;;
74108;SDS011;62466;47.566;7.786;2023-03-01T04:07:30;24.13;;;14.20;;
74108;SDS011;62466;47.566;7.786;2023-03-01T04:09:56;22.33;;;14.90;;
74108;SDS011;62466;47.566;7.786;2023-03-01T04:12:21;23.33;;;15.35;;
74108;SDS011;62466;47.566;7.786;2023-03-01T04:14:48;25.83;;;15.82;;
74108;SDS011;62466;47.566;7.786;2023-03-01T04:17:13;24.27;;;14.20;;
74108;SDS011;62466;47.566;7.786;2023-03-01T04:19:39;23.60;;;14.90;;
74108;SDS011;62466;47.566;7.786;2023-03-01T04:22:04;26.20;;;15.93;;
74108;SDS011;62466;47.566;7.786;2023-03-01T04:24:37;26.20;;;15.27;;
74108;SDS011;62466;47.566;7.786;2023-03-01T04:27:03;26.02;;;15.50;;
74108;SDS011;62466;47.566;7.786;2023-03-01T04:29:28;23.90;;;15.18;;
74108;SDS011;62466;47.566;7.786;2023-03-01T04:31:53;26.35;;;15.75;;
74108;SDS011;62466;47.566;7.786;2023-03-01T04:34:19;23.90;;;15.13;;
74108;SDS011;62466;47.566;7.786;2023-03-01T04:36:45;22.77;;;14.18;;
74108;SDS011;62466;47.566;7.786;2023-03-01T04:39:10;28.48;;;15.30;;
74108;SDS011;62466;47.566;7.786;2023-03-01T04:41:39;30.88;;;16.17;;
74108;SDS011;62466;47.566;7.786;2023-03-01T04:44:05;28.35;;;15.68;;
74108;SDS011;62466;47.566;7.786;2023-03-01T04:46:31;28.05;;;15.25;;
74108;SDS011;62466;47.566;7.786;2023-03-01T04:48:56;25.50;;;15.38;;
74108;SDS011;62466;47.566;7.786;2023-03-01T04:51:22;25.05;;;15.50;;
74108;SDS011;62466;47.566;7.786;2023-03-01T04:53:47;28.63;;;15.18;;
74108;SDS011;62466;47.566;7.786;2023-03-01T04:56:13;25.63;;;15.13;;
74108;SDS011;62466;47.566;7.786;2023-03-01T04:58:39;24.13;;;15.20;;
74108;SDS011;62466;47.566;7.786;2023-03-01T05:01:11;28.73;;;14.80;;
74108;SDS011;62466;47.566;7.786;2023-03-01T05:03:44;22.92;;;14.45;;
74108;SDS011;62466;47.566;7.786;2023-03-01T05:06:11;26.20;;;16.35;;
74108;SDS011;62466;47.566;7.786;2023-03-01T05:08:37;29.05;;;16.52;;
74108;SDS011;62466;47.566;7.786;2023-03-01T05:11:03;24.88;;;16.23;;
74108;SDS011;62466;47.566;7.786;2023-03-01T05:13:29;24.70;;;16.38;;
74108;SDS011;62466;47.566;7.786;2023-03-01T05:18:25;25.90;;;15.85;;
74108;SDS011;62466;47.566;7.786;2023-03-01T05:20:52;24.33;;;14.98;;
74108;SDS011;62466;47.566;7.786;2023-03-01T05:23:21;28.85;;;16.00;;
74108;SDS011;62466;47.566;7.786;2023-03-01T05:25:47;25.60;;;15.63;;
74108;SDS011;62466;47.566;7.786;2023-03-01T05:28:14;25.65;;;16.10;;
74108;SDS011;62466;47.566;7.786;2023-03-01T05:30:40;31.42;;;15.52;;
74108;SDS011;62466;47.566;7.786;2023-03-01T05:33:07;21.98;;;14.43;;
74108;SDS011;62466;47.566;7.786;2023-03-01T05:35:41;26.38;;;14.95;;
74108;SDS011;62466;47.566;7.786;2023-03-01T05:38:09;26.58;;;16.00;;
74108;SDS011;62466;47.566;7.786;2023-03-01T05:40:38;24.58;;;16.48;;
74108;SDS011;62466;47.566;7.786;2023-03-01T05:43:04;27.67;;;15.45;;
74108;SDS011;62466;47.566;7.786;2023-03-01T05:45:30;28.33;;;16.30;;
74108;SDS011;62466;47.566;7.786;2023-03-01T05:47:57;28.95;;;15.80;;
74108;SDS011;62466;47.566;7.786;2023-03-01T05:50:25;25.80;;;15.52;;
74108;SDS011;62466;47.566;7.786;2023-03-01T05:52:56;25.58;;;15.52;;
74108;SDS011;62466;47.566;7.786;2023-03-01T05:55:35;25.05;;;14.23;;
74108;SDS011;62466;47.566;7.786;2023-03-01T05:58:02;27.13;;;14.77;;
74108;SDS011;62466;47.566;7.786;2023-03-01T06:00:30;22.42;;;14.48;;
74108;SDS011;62466;47.566;7.786;2023-03-01T06:02:56;26.10;;;15.50;;
74108;SDS011;62466;47.566;7.786;2023-03-01T06:05:22;28.92;;;15.50;;
74108;SDS011;62466;47.566;7.786;2023-03-01T06:07:48;24.85;;;15.10;;
74108;SDS011;62466;47.566;7.786;2023-03-01T06:10:17;25.95;;;15.40;;
74108;SDS011;62466;47.566;7.786;2023-03-01T06:12:45;23.45;;;14.27;;
74108;SDS011;62466;47.566;7.786;2023-03-01T06:15:11;22.10;;;14.65;;
74108;SDS011;62466;47.566;7.786;2023-03-01T06:17:38;26.05;;;15.18;;
74108;SDS011;62466;47.566;7.786;2023-03-01T06:20:06;27.02;;;15.25;;
74108;SDS011;62466;47.566;7.786;2023-03-01T06:22:37;25.40;;;14.63;;
74108;SDS011;62466;47.566;7.786;2023-03-01T06:25:03;27.88;;;14.57;;
74108;SDS011;62466;47.566;7.786;2023-03-01T06:27:29;28.73;;;15.52;;
74108;SDS011;62466;47.566;7.786;2023-03-01T06:29:55;28.40;;;16.25;;
74108;SDS011;62466;47.566;7.786;2023-03-01T06:32:20;29.80;;;15.07;;
74108;SDS011;62466;47.566;7.786;2023-03-01T06:34:46;28.75;;;16.23;;
74108;SDS011;62466;47.566;7.786;2023-03-01T06:37:11;24.25;;;14.20;;
74108;SDS011;62466;47.566;7.786;2023-03-01T06:39:36;25.95;;;14.23;;
74108;SDS011;62466;47.566;7.786;2023-03-01T06:42:02;25.67;;;14.60;;
74108;SDS011;62466;47.566;7.786;2023-03-01T06:44:28;27.50;;;15.38;;
74108;SDS011;62466;47.566;7.786;2023-03-01T06:46:53;23.17;;;14.73;;
74108;SDS011;62466;47.566;7.786;2023-03-01T06:49:19;25.55;;;14.82;;
74108;SDS011;62466;47.566;7.786;2023-03-01T06:51:45;22.80;;;14.50;;
74108;SDS011;62466;47.566;7.786;2023-03-01T06:54:11;27.10;;;15.20;;
74108;SDS011;62466;47.566;7.786;2023-03-01T06:56:37;26.58;;;14.45;;
74108;SDS011;62466;47.566;7.786;2023-03-01T06:59:02;28.70;;;16.85;;
74108;SDS011;62466;47.566;7.786;2023-03-01T07:01:28;27.27;;;14.85;;
74108;SDS011;62466;47.566;7.786;2023-03-01T07:03:54;26.80;;;14.35;;
74108;SDS011;62466;47.566;7.786;2023-03-01T07:06:20;21.25;;;14.15;;
74108;SDS011;62466;47.566;7.786;2023-03-01T07:08:45;29.13;;;14.45;;
74108;SDS011;62466;47.566;7.786;2023-03-01T07:11:11;24.60;;;15.35;;
74108;SDS011;62466;47.566;7.786;2023-03-01T07:13:36;24.80;;;14.90;;
74108;SDS011;62466;47.566;7.786;2023-03-01T07:16:02;24.73;;;14.57;;
74108;SDS011;62466;47.566;7.786;2023-03-01T07:18:27;25.80;;;14.80;;
74108;SDS011;62466;47.566;7.786;2023-03-01T07:20:53;29.35;;;16.55;;
74108;SDS011;62466;47.566;7.786;2023-03-01T07:23:18;25.83;;;15.23;;
74108;SDS011;62466;47.566;7.786;2023-03-01T07:25:44;32.30;;;15.13;;
74108;SDS011;62466;47.566;7.786;2023-03-01T07:28:09;24.30;;;14.77;;
74108;SDS011;62466;47.566;7.786;2023-03-01T07:30:35;29.05;;;15.98;;
74108;SDS011;62466;47.566;7.786;2023-03-01T07:33:00;22.40;;;14.32;;
74108;SDS011;62466;47.566;7.786;2023-03-01T07:35:26;23.63;;;15.48;;
74108;SDS011;62466;47.566;7.786;2023-03-01T07:37:52;22.40;;;14.90;;
74108;SDS011;62466;47.566;7.786;2023-03-01T07:40:18;23.85;;;14.13;;
74108;SDS011;62466;47.566;7.786;2023-03-01T07:42:43;29.77;;;15.10;;
74108;SDS011;62466;47.566;7.786;2023-03-01T07:45:09;27.67;;;15.38;;
74108;SDS011;62466;47.566;7.786;2023-03-01T07:47:35;23.33;;;15.20;;
74108;SDS011;62466;47.566;7.786;2023-03-01T07:50:00;26.38;;;15.18;;
74108;SDS011;62466;47.566;7.786;2023-03-01T07:52:26;28.10;;;14.15;;
74108;SDS011;62466;47.566;7.786;2023-03-01T07:54:51;26.20;;;14.75;;
74108;SDS011;62466;47.566;7.786;2023-03-01T07:57:17;28.90;;;15.35;;
74108;SDS011;62466;47.566;7.786;2023-03-01T07:59:43;25.20;;;14.85;;
74108;SDS011;62466;47.566;7.786;2023-03-01T08:02:08;34.15;;;14.82;;
74108;SDS011;62466;47.566;7.786;2023-03-01T08:04:35;25.42;;;14.70;;
74108;SDS011;62466;47.566;7.786;2023-03-01T08:07:01;29.48;;;15.23;;
74108;SDS011;62466;47.566;7.786;2023-03-01T08:09:26;27.48;;;15.10;;
74108;SDS011;62466;47.566;7.786;2023-03-01T08:11:51;23.33;;;14.43;;
74108;SDS011;62466;47.566;7.786;2023-03-01T08:14:17;27.77;;;15.27;;
74108;SDS011;62466;47.566;7.786;2023-03-01T08:16:43;27.05;;;14.95;;
74108;SDS011;62466;47.566;7.786;2023-03-01T08:19:09;25.70;;;15.43;;
74108;SDS011;62466;47.566;7.786;2023-03-01T08:21:36;23.77;;;14.80;;
74108;SDS011;62466;47.566;7.786;2023-03-01T08:24:03;24.42;;;14.93;;
74108;SDS011;62466;47.566;7.786;2023-03-01T08:26:29;27.83;;;16.25;;
74108;SDS011;62466;47.566;7.786;2023-03-01T08:28:55;26.77;;;14.60;;
74108;SDS011;62466;47.566;7.786;2023-03-01T08:31:23;25.98;;;15.88;;
74108;SDS011;62466;47.566;7.786;2023-03-01T08:33:51;23.85;;;14.98;;
74108;SDS011;62466;47.566;7.786;2023-03-01T08:36:20;24.67;;;14.80;;
74108;SDS011;62466;47.566;7.786;2023-03-01T08:38:47;24.67;;;14.77;;
74108;SDS011;62466;47.566;7.786;2023-03-01T08:41:13;25.42;;;14.55;;
74108;SDS011;62466;47.566;7.786;2023-03-01T08:43:38;22.02;;;13.95;;
74108;SDS011;62466;47.566;7.786;2023-03-01T08:46:03;26.00;;;14.63;;
74108;SDS011;62466;47.566;7.786;2023-03-01T08:48:29;26.92;;;15.55;;
74108;SDS011;62466;47.566;7.786;2023-03-01T08:50:55;25.48;;;13.90;;
74108;SDS011;62466;47.566;7.786;2023-03-01T08:53:20;26.35;;;14.27;;
74108;SDS011;62466;47.566;7.786;2023-03-01T08:55:46;27.13;;;15.07;;
74108;SDS011;62466;47.566;7.786;2023-03-01T08:58:11;25.02;;;15.00;;
74108;SDS011;62466;47.566;7.786;2023-03-01T09:00:37;25.38;;;15.02;;
74108;SDS011;62466;47.566;7.786;2023-03-01T09:03:03;26.40;;;14.68;;
74108;SDS011;62466;47.566;7.786;2023-03-01T09:05:31;28.58;;;14.95;;
74108;SDS011;62466;47.566;7.786;2023-03-01T09:07:57;28.15;;;15.48;;
74108;SDS011;62466;47.566;7.786;2023-03-01T09:10:23;26.00;;;14.50;;
74108;SDS011;62466;47.566;7.786;2023-03-01T09:12:48;33.00;;;15.48;;
74108;SDS011;62466;47.566;7.786;2023-03-01T09:15:14;28.10;;;15.13;;
74108;SDS011;62466;47.566;7.786;2023-03-01T09:17:39;23.85;;;14.57;;
74108;SDS011;62466;47.566;7.786;2023-03-01T09:20:05;26.98;;;15.20;;
74108;SDS011;62466;47.566;7.786;2023-03-01T09:22:32;25.10;;;14.60;;
74108;SDS011;62466;47.566;7.786;2023-03-01T09:24:59;22.02;;;13.63;;
74108;SDS011;62466;47.566;7.786;2023-03-01T09:27:24;24.58;;;15.00;;
74108;SDS011;62466;47.566;7.786;2023-03-01T09:29:50;28.23;;;14.77;;
74108;SDS011;62466;47.566;7.786;2023-03-01T09:32:16;22.45;;;13.75;;
74108;SDS011;62466;47.566;7.786;2023-03-01T09:34:41;22.55;;;14.43;;
74108;SDS011;62466;47.566;7.786;2023-03-01T09:37:26;28.17;;;15.80;;
74108;SDS011;62466;47.566;7.786;2023-03-01T09:39:52;23.88;;;14.65;;
74108;SDS011;62466;47.566;7.786;2023-03-01T09:42:17;24.70;;;14.65;;
74108;SDS011;62466;47.566;7.786;2023-03-01T09:47:18;24.23;;;14.80;;
74108;SDS011;62466;47.566;7.786;2023-03-01T09:49:47;25.05;;;15.07;;
74108;SDS011;62466;47.566;7.786;2023-03-01T09:52:42;28.95;;;15.02;;
74108;SDS011;62466;47.566;7.786;2023-03-01T09:55:13;28.05;;;15.27;;
74108;SDS011;62466;47.566;7.786;2023-03-01T10:00:33;27.98;;;14.95;;
74108;SDS011;62466;47.566;7.786;2023-03-01T10:08:38;28.30;;;15.00;;
74108;SDS011;62466;47.566;7.786;2023-03-01T10:11:29;21.77;;;13.90;;
74108;SDS011;62466;47.566;7.786;2023-03-01T10:16:51;27.48;;;15.13;;
74108;SDS011;62466;47.566;7.786;2023-03-01T10:19:24;21.10;;;14.07;;
74108;SDS011;62466;47.566;7.786;2023-03-01T10:22:13;26.00;;;15.32;;
74108;SDS011;62466;47.566;7.786;2023-03-01T10:24:41;25.92;;;14.77;;
74108;SDS011;62466;47.566;7.786;2023-03-01T10:27:09;29.23;;;15.55;;
74108;SDS011;62466;47.566;7.786;2023-03-01T10:29:56;23.77;;;15.15;;
74108;SDS011;62466;47.566;7.786;2023-03-01T10:32:45;28.25;;;15.60;;
74108;SDS011;62466;47.566;7.786;2023-03-01T10:37:57;30.00;;;15.93;;
74108;SDS011;62466;47.566;7.786;2023-03-01T10:40:31;30.55;;;15.27;;
74108;SDS011;62466;47.566;7.786;2023-03-01T10:42:58;20.75;;;12.98;;
74108;SDS011;62466;47.566;7.786;2023-03-01T10:45:32;25.73;;;13.52;;
74108;SDS011;62466;47.566;7.786;2023-03-01T10:48:20;26.67;;;14.45;;
74108;SDS011;62466;47.566;7.786;2023-03-01T10:50:49;26.95;;;14.00;;
74108;SDS011;62466;47.566;7.786;2023-03-01T10:58:31;23.13;;;13.10;;
74108;SDS011;62466;47.566;7.786;2023-03-01T11:00:58;25.92;;;13.23;;
74108;SDS011;62466;47.566;7.786;2023-03-01T11:03:33;27.88;;;14.43;;
74108;SDS011;62466;47.566;7.786;2023-03-01T11:11:25;26.77;;;14.02;;
74108;SDS011;62466;47.566;7.786;2023-03-01T11:18:57;23.17;;;13.25;;
74108;SDS011;62466;47.566;7.786;2023-03-01T11:21:41;24.38;;;13.88;;
74108;SDS011;62466;47.566;7.786;2023-03-01T11:24:12;24.38;;;13.32;;
74108;SDS011;62466;47.566;7.786;2023-03-01T11:26:40;23.35;;;12.98;;
74108;SDS011;62466;47.566;7.786;2023-03-01T11:29:12;23.05;;;13.93;;
74108;SDS011;62466;47.566;7.786;2023-03-01T11:31:43;21.33;;;13.23;;
74108;SDS011;62466;47.566;7.786;2023-03-01T11:34:11;24.58;;;13.45;;
74108;SDS011;62466;47.566;7.786;2023-03-01T11:36:48;23.75;;;13.30;;
74108;SDS011;62466;47.566;7.786;2023-03-01T11:42:42;23.88;;;12.00;;
74108;SDS011;62466;47.566;7.786;2023-03-01T11:45:13;23.00;;;13.35;;
74108;SDS011;62466;47.566;7.786;2023-03-01T11:47:52;26.75;;;14.32;;
74108;SDS011;62466;47.566;7.786;2023-03-01T11:56:04;23.58;;;13.18;;
74108;SDS011;62466;47.566;7.786;2023-03-01T12:23:38;22.30;;;13.60;;
74108;SDS011;62466;47.566;7.786;2023-03-01T12:26:13;25.08;;;13.73;;
74108;SDS011;62466;47.566;7.786;2023-03-01T12:28:50;21.35;;;13.65;;
74108;SDS011;62466;47.566;7.786;2023-03-01T12:37:23;23.60;;;12.27;;
74108;SDS011;62466;47.566;7.786;2023-03-01T12:45:19;22.97;;;13.23;;
74108;SDS011;62466;47.566;7.786;2023-03-01T12:50:59;20.98;;;13.23;;
74108;SDS011;62466;47.566;7.786;2023-03-01T12:53:35;19.35;;;11.63;;
74108;SDS011;62466;47.566;7.786;2023-03-01T12:56:06;23.17;;;12.93;;
74108;SDS011;62466;47.566;7.786;2023-03-01T13:15:26;24.13;;;13.05;;
74108;SDS011;62466;47.566;7.786;2023-03-01T13:17:56;17.02;;;11.90;;
74108;SDS011;62466;47.566;7.786;2023-03-01T13:23:01;22.58;;;12.40;;
74108;SDS011;62466;47.566;7.786;2023-03-01T13:28:12;26.25;;;13.45;;
74108;SDS011;62466;47.566;7.786;2023-03-01T13:30:57;24.85;;;12.85;;
74108;SDS011;62466;47.566;7.786;2023-03-01T13:36:01;23.08;;;12.50;;
74108;SDS011;62466;47.566;7.786;2023-03-01T13:41:14;18.45;;;11.88;;
74108;SDS011;62466;47.566;7.786;2023-03-01T13:43:42;23.98;;;12.95;;
74108;SDS011;62466;47.566;7.786;2023-03-01T13:46:30;20.75;;;13.10;;
74108;SDS011;62466;47.566;7.786;2023-03-01T13:48:55;20.52;;;13.00;;
74108;SDS011;62466;47.566;7.786;2023-03-01T13:51:23;19.92;;;13.13;;
74108;SDS011;62466;47.566;7.786;2023-03-01T13:53:51;21.42;;;12.77;;
74108;SDS011;62466;47.566;7.786;2023-03-01T13:56:18;22.70;;;13.95;;
74108;SDS011;62466;47.566;7.786;2023-03-01T13:58:52;24.23;;;12.55;;
74108;SDS011;62466;47.566;7.786;2023-03-01T14:01:35;25.50;;;14.30;;
74108;SDS011;62466;47.566;7.786;2023-03-01T14:04:02;24.17;;;13.23;;
74108;SDS011;62466;47.566;7.786;2023-03-01T14:06:29;20.67;;;12.00;;
74108;SDS011;62466;47.566;7.786;2023-03-01T14:14:30;23.58;;;12.32;;
74108;SDS011;62466;47.566;7.786;2023-03-01T14:19:42;18.60;;;11.88;;
74108;SDS011;62466;47.566;7.786;2023-03-01T14:22:26;23.05;;;11.68;;
74108;SDS011;62466;47.566;7.786;2023-03-01T14:24:57;23.70;;;14.05;;
74108;SDS011;62466;47.566;7.786;2023-03-01T14:27:35;24.08;;;13.02;;
74108;SDS011;62466;47.566;7.786;2023-03-01T14:30:14;19.25;;;12.32;;
74108;SDS011;62466;47.566;7.786;2023-03-01T14:32:43;28.25;;;13.15;;
74108;SDS011;62466;47.566;7.786;2023-03-01T14:35:28;22.70;;;13.35;;
74108;SDS011;62466;47.566;7.786;2023-03-01T14:37:55;19.63;;;12.27;;
74108;SDS011;62466;47.566;7.786;2023-03-01T14:40:27;25.73;;;12.75;;
74108;SDS011;62466;47.566;7.786;2023-03-01T14:42:55;21.80;;;13.57;;
74108;SDS011;62466;47.566;7.786;2023-03-01T14:45:22;22.75;;;12.50;;
74108;SDS011;62466;47.566;7.786;2023-03-01T14:47:49;29.20;;;14.45;;
74108;SDS011;62466;47.566;7.786;2023-03-01T14:50:20;26.38;;;14.57;;
74108;SDS011;62466;47.566;7.786;2023-03-01T14:55:21;19.55;;;11.80;;
74108;SDS011;62466;47.566;7.786;2023-03-01T14:57:50;24.50;;;13.35;;
74108;SDS011;62466;47.566;7.786;2023-03-01T15:00:29;25.45;;;15.15;;
74108;SDS011;62466;47.566;7.786;2023-03-01T15:02:56;24.77;;;13.82;;
74108;SDS011;62466;47.566;7.786;2023-03-01T15:05:31;22.08;;;13.25;;
74108;SDS011;62466;47.566;7.786;2023-03-01T15:07:58;25.70;;;13.57;;
74108;SDS011;62466;47.566;7.786;2023-03-01T15:10:26;25.08;;;13.73;;
74108;SDS011;62466;47.566;7.786;2023-03-01T15:12:58;22.75;;;13.40;;
74108;SDS011;62466;47.566;7.786;2023-03-01T15:15:38;21.27;;;12.25;;
74108;SDS011;62466;47.566;7.786;2023-03-01T15:18:13;22.75;;;13.68;;
74108;SDS011;62466;47.566;7.786;2023-03-01T15:20:41;24.00;;;13.95;;
74108;SDS011;62466;47.566;7.786;2023-03-01T15:23:12;25.83;;;13.95;;
74108;SDS011;62466;47.566;7.786;2023-03-01T15:25:43;29.02;;;14.23;;
74108;SDS011;62466;47.566;7.786;2023-03-01T15:28:17;26.13;;;14.52;;
74108;SDS011;62466;47.566;7.786;2023-03-01T15:30:45;23.65;;;13.07;;
74108;SDS011;62466;47.566;7.786;2023-03-01T15:35:47;27.85;;;13.93;;
74108;SDS011;62466;47.566;7.786;2023-03-01T15:38:31;24.38;;;13.63;;
74108;SDS011;62466;47.566;7.786;2023-03-01T15:41:25;25.10;;;13.48;;
74108;SDS011;62466;47.566;7.786;2023-03-01T15:44:14;21.83;;;12.93;;
74108;SDS011;62466;47.566;7.786;2023-03-01T15:46:47;27.65;;;13.93;;
74108;SDS011;62466;47.566;7.786;2023-03-01T15:52:01;22.70;;;12.50;;
74108;SDS011;62466;47.566;7.786;2023-03-01T15:54:27;24.15;;;13.73;;
74108;SDS011;62466;47.566;7.786;2023-03-01T15:56:53;26.63;;;13.07;;
74108;SDS011;62466;47.566;7.786;2023-03-01T15:59:19;22.58;;;13.35;;
74108;SDS011;62466;47.566;7.786;2023-03-01T16:01:44;24.33;;;13.73;;
74108;SDS011;62466;47.566;7.786;2023-03-01T16:04:14;23.98;;;13.30;;
74108;SDS011;62466;47.566;7.786;2023-03-01T16:06:52;28.25;;;14.52;;
74108;SDS011;62466;47.566;7.786;2023-03-01T16:09:22;27.52;;;14.10;;
74108;SDS011;62466;47.566;7.786;2023-03-01T16:11:48;24.58;;;14.13;;
74108;SDS011;62466;47.566;7.786;2023-03-01T16:14:14;22.88;;;14.27;;
74108;SDS011;62466;47.566;7.786;2023-03-01T16:16:41;25.13;;;14.73;;
74108;SDS011;62466;47.566;7.786;2023-03-01T16:19:07;24.70;;;14.85;;
74108;SDS011;62466;47.566;7.786;2023-03-01T16:21:33;25.40;;;13.82;;
74108;SDS011;62466;47.566;7.786;2023-03-01T16:23:58;26.73;;;14.75;;
74108;SDS011;62466;47.566;7.786;2023-03-01T16:26:23;27.00;;;15.07;;
74108;SDS011;62466;47.566;7.786;2023-03-01T16:28:49;27.45;;;13.55;;
74108;SDS011;62466;47.566;7.786;2023-03-01T16:31:18;23.20;;;13.85;;
74108;SDS011;62466;47.566;7.786;2023-03-01T16:33:44;29.05;;;14.52;;
74108;SDS011;62466;47.566;7.786;2023-03-01T16:36:14;24.63;;;14.38;;
74108;SDS011;62466;47.566;7.786;2023-03-01T16:38:41;20.02;;;12.85;;
74108;SDS011;62466;47.566;7.786;2023-03-01T16:41:10;25.90;;;14.75;;
74108;SDS011;62466;47.566;7.786;2023-03-01T16:43:37;26.35;;;14.50;;
74108;SDS011;62466;47.566;7.786;2023-03-01T16:46:09;28.08;;;13.57;;